createdAt,value
2018-05-10T07:55:41.779Z,4.40
2018-05-10T08:00:43.864Z,4.20
2018-05-10T08:05:46.940Z,4.20
2018-05-10T08:10:49.788Z,4.23
2018-05-10T08:15:51.885Z,4.70
2018-05-10T08:20:54.864Z,4.50
2018-05-10T08:25:56.585Z,4.90
2018-05-10T08:30:58.341Z,4.70
2018-05-10T08:36:01.245Z,5.00
2018-05-10T09:33:33.615Z,3.17
2018-05-10T09:38:34.983Z,3.03
2018-05-10T09:43:36.345Z,2.70
2018-05-10T09:48:37.696Z,2.80
2018-05-10T09:53:39.088Z,2.60
2018-05-10T09:58:40.476Z,2.50
2018-05-10T10:03:41.827Z,2.40
2018-05-10T10:08:43.193Z,2.30
2018-05-10T10:14:23.845Z,2.17
2018-05-10T10:16:50.934Z,2.20
2018-05-10T10:19:17.300Z,2.33
2018-05-10T10:21:43.657Z,2.07
2018-05-10T10:24:10.007Z,2.20
2018-05-10T10:26:36.413Z,2.10
2018-05-10T10:29:02.761Z,2.07
2018-05-10T10:31:29.130Z,2.30
2018-05-10T10:33:56.235Z,2.00
2018-05-10T10:36:22.567Z,2.10
2018-05-10T10:38:48.938Z,2.20
2018-05-10T10:41:16.049Z,2.10
2018-05-10T10:43:42.417Z,2.10
2018-05-10T10:46:08.788Z,2.20
2018-05-10T10:48:35.928Z,2.40
2018-05-10T10:51:02.309Z,2.20
2018-05-10T10:53:28.675Z,2.00
2018-05-10T10:55:55.077Z,2.37
2018-05-10T10:58:21.465Z,2.43
2018-05-10T11:00:47.845Z,2.33
2018-05-10T11:03:14.996Z,2.50
2018-05-10T11:05:41.362Z,2.70
2018-05-10T11:08:07.753Z,2.67
2018-05-10T11:10:34.135Z,2.37
2018-05-10T11:13:00.528Z,2.50
2018-05-10T11:15:27.656Z,2.70
2018-05-10T11:17:54.017Z,2.27
2018-05-10T11:20:21.135Z,2.50
2018-05-10T11:22:47.509Z,2.37
2018-05-10T11:25:13.868Z,2.83
2018-05-10T11:27:40.248Z,4.00
2018-05-10T11:30:06.604Z,4.43
2018-05-10T11:32:33.003Z,5.07
2018-05-10T11:34:59.364Z,4.97
2018-05-10T11:37:25.788Z,5.27
2018-05-10T11:39:53.009Z,5.40
2018-05-10T11:42:19.380Z,4.53
2018-05-10T11:44:46.502Z,5.20
2018-05-10T11:47:12.863Z,4.27
2018-05-10T11:49:39.250Z,3.97
2018-05-10T11:52:05.631Z,3.70
2018-05-10T11:54:32.016Z,3.73
2018-05-10T11:56:58.372Z,3.50
2018-05-10T11:59:25.486Z,3.30
2018-05-10T12:01:51.868Z,3.27
2018-05-10T12:04:18.973Z,2.83
2018-05-10T12:06:45.320Z,2.93
2018-05-10T12:09:12.444Z,3.30
2018-05-10T12:11:39.160Z,2.43
2018-05-10T12:14:05.530Z,2.67
2018-05-10T12:16:31.888Z,2.87
2018-05-10T12:18:59.028Z,2.97
2018-05-10T12:21:25.366Z,2.70
2018-05-10T12:23:51.763Z,2.93
2018-05-10T12:26:18.176Z,2.50
2018-05-10T12:28:44.579Z,2.60
2018-05-10T12:31:11.009Z,2.67
2018-05-10T12:33:37.411Z,2.43
2018-05-10T12:36:03.865Z,2.60
2018-05-10T12:38:30.292Z,2.30
2018-05-10T12:40:57.389Z,2.40
2018-05-10T12:43:23.786Z,2.30
2018-05-10T12:45:50.873Z,2.20
2018-05-10T12:48:17.421Z,2.30
2018-05-10T12:50:43.819Z,2.30
2018-05-10T12:53:10.194Z,2.20
2018-05-10T12:55:36.562Z,2.40
2018-05-10T12:58:03.699Z,2.20
2018-05-10T13:00:30.804Z,2.00
2018-05-10T13:02:57.227Z,2.13
2018-05-10T13:05:23.604Z,2.30
2018-05-10T13:07:49.957Z,2.10
2018-05-10T13:10:16.289Z,2.27
2018-05-10T13:12:42.685Z,2.23
2018-05-10T13:15:09.070Z,2.40
2018-05-10T13:17:36.209Z,2.30
2018-05-10T13:20:03.297Z,2.30
2018-05-10T13:22:29.677Z,2.00
2018-05-10T13:24:56.056Z,2.17
2018-05-10T13:27:22.481Z,2.00
2018-05-10T13:29:48.913Z,2.00
2018-05-10T13:32:15.305Z,2.10
2018-05-10T13:34:42.509Z,2.20
2018-05-10T13:37:08.918Z,2.07
2018-05-10T13:39:35.274Z,2.00
2018-05-10T13:42:01.641Z,1.80
2018-05-10T13:44:28.040Z,2.10
2018-05-10T13:46:54.403Z,1.80
2018-05-10T13:49:20.764Z,2.20
2018-05-10T13:51:47.159Z,2.20
2018-05-10T13:54:13.591Z,1.97
2018-05-10T13:56:39.971Z,1.70
2018-05-10T13:59:06.424Z,1.70
2018-05-10T14:01:32.736Z,1.73
2018-05-10T14:03:59.097Z,1.80
2018-05-10T14:06:25.489Z,1.77
2018-05-10T14:08:52.574Z,1.80
2018-05-10T14:11:18.931Z,1.87
2018-05-10T14:13:46.091Z,1.53
2018-05-10T14:16:13.207Z,1.57
2018-05-10T14:18:39.583Z,1.93
2018-05-10T14:21:06.679Z,1.93
2018-05-10T14:23:33.016Z,1.77
2018-05-10T14:25:59.379Z,1.90
2018-05-10T14:28:25.726Z,1.87
2018-05-10T14:30:52.107Z,1.93
2018-05-10T14:33:18.489Z,1.90
2018-05-10T14:35:44.825Z,1.77
2018-05-10T14:38:11.924Z,1.80
2018-05-10T14:40:38.283Z,1.80
2018-05-10T14:43:04.668Z,1.97
2018-05-10T14:45:31.036Z,2.00
2018-05-10T14:47:57.384Z,1.80
2018-05-10T14:50:23.732Z,1.80
2018-05-10T14:52:50.848Z,2.03
2018-05-10T14:55:17.215Z,1.90
2018-05-10T14:57:43.753Z,1.90
2018-05-10T15:00:10.848Z,1.80
2018-05-10T15:02:37.271Z,1.67
2018-05-10T15:05:03.644Z,1.87
2018-05-10T15:07:29.984Z,1.90
2018-05-10T15:09:56.437Z,1.80
2018-05-10T15:12:37.677Z,1.90
2018-05-10T15:15:04.044Z,1.80
2018-05-10T15:17:31.167Z,1.83
2018-05-10T15:19:58.296Z,1.90
2018-05-10T15:22:24.690Z,2.00
2018-05-10T15:24:51.060Z,1.83
2018-05-10T15:27:17.451Z,1.63
2018-05-10T15:29:43.842Z,1.70
2018-05-10T15:32:10.219Z,1.70
2018-05-10T15:34:37.488Z,1.60
2018-05-10T15:37:03.844Z,1.93
2018-05-10T15:39:30.203Z,1.50
2018-05-10T15:41:56.552Z,2.13
2018-05-10T15:44:23.652Z,1.60
2018-05-10T15:46:50.745Z,1.60
2018-05-10T15:49:17.829Z,1.60
2018-05-10T15:51:44.180Z,1.70
2018-05-10T15:54:10.577Z,2.03
2018-05-10T15:56:36.952Z,1.70
2018-05-10T15:59:03.344Z,1.70
2018-05-10T16:01:30.536Z,1.70
2018-05-10T16:03:56.923Z,1.70
2018-05-10T16:06:23.299Z,1.60
2018-05-10T16:08:49.649Z,1.53
2018-05-10T16:11:16.021Z,1.57
2018-05-10T16:13:42.379Z,1.77
2018-05-10T16:16:08.743Z,1.50
2018-05-10T16:18:35.091Z,1.53
2018-05-10T16:21:02.204Z,1.47
2018-05-10T16:23:28.572Z,1.70
2018-05-10T16:25:55.677Z,1.70
2018-05-10T16:28:22.936Z,1.57
2018-05-10T16:30:49.315Z,1.80
2018-05-10T16:33:15.693Z,1.63
2018-05-10T16:35:42.058Z,2.00
2018-05-10T16:38:09.188Z,1.80
2018-05-10T16:40:35.590Z,1.90
2018-05-10T16:43:01.959Z,1.70
2018-05-10T16:45:29.105Z,1.80
2018-05-10T16:47:56.301Z,1.87
2018-05-10T16:50:22.685Z,1.80
2018-05-10T16:52:49.136Z,1.60
2018-05-10T16:55:15.543Z,1.70
2018-05-10T16:57:41.951Z,1.80
2018-05-10T17:00:08.299Z,1.50
2018-05-10T17:02:34.649Z,1.50
2018-05-10T17:05:01.026Z,1.80
2018-05-10T17:07:27.419Z,2.00
2018-05-10T17:09:53.813Z,1.73
2018-05-10T17:12:20.185Z,2.17
2018-05-10T17:14:46.572Z,2.00
2018-05-10T17:17:12.969Z,2.17
2018-05-10T17:19:40.169Z,2.00
2018-05-10T17:22:06.558Z,1.80
2018-05-10T17:24:32.965Z,2.00
2018-05-10T17:26:59.371Z,2.10
2018-05-10T17:29:25.733Z,1.90
2018-05-10T17:31:52.108Z,2.17
2018-05-10T17:34:18.455Z,2.33
2018-05-10T17:36:44.831Z,2.20
2018-05-10T17:39:11.935Z,2.40
2018-05-10T17:41:38.349Z,2.33
2018-05-10T17:44:05.433Z,2.03
2018-05-10T17:46:31.802Z,2.10
2018-05-10T17:48:58.185Z,1.97
2018-05-10T17:51:25.261Z,2.37
2018-05-10T17:53:51.653Z,2.27
2018-05-10T17:56:18.124Z,1.90
2018-05-10T17:58:44.637Z,2.10
2018-05-10T18:01:11.081Z,1.90
2018-05-10T18:03:37.390Z,1.80
2018-05-10T18:06:03.754Z,2.00
2018-05-10T18:08:30.906Z,2.07
2018-05-10T18:10:57.265Z,2.20
2018-05-10T18:13:24.435Z,1.93
2018-05-10T18:15:50.808Z,1.77
2018-05-10T18:18:17.227Z,1.73
2018-05-10T18:20:43.675Z,1.80
2018-05-10T18:23:10.829Z,1.87
2018-05-10T18:25:37.242Z,1.90
2018-05-10T18:28:03.645Z,2.03
2018-05-10T18:30:30.017Z,2.00
2018-05-10T18:32:56.461Z,2.10
2018-05-10T18:35:22.826Z,1.80
2018-05-10T18:37:49.216Z,2.00
2018-05-10T18:40:15.642Z,2.20
2018-05-10T18:42:42.047Z,2.00
2018-05-10T18:45:08.448Z,2.00
2018-05-10T18:47:34.842Z,1.87
2018-05-10T18:50:01.178Z,2.10
2018-05-10T18:52:27.564Z,2.20
2018-05-10T18:54:53.931Z,1.97
2018-05-10T18:57:20.212Z,2.30
2018-05-10T18:59:46.544Z,2.33
2018-05-10T19:02:12.868Z,2.10
2018-05-10T19:04:39.984Z,2.10
2018-05-10T19:07:06.314Z,2.00
2018-05-10T19:09:32.679Z,2.10
2018-05-10T19:11:59.033Z,1.80
2018-05-10T19:14:25.374Z,1.97
2018-05-10T19:16:52.454Z,1.93
2018-05-10T19:19:18.804Z,2.50
2018-05-10T19:21:45.167Z,2.30
2018-05-10T19:24:12.261Z,1.90
2018-05-10T19:26:38.591Z,2.03
2018-05-10T19:29:04.975Z,2.30
2018-05-10T19:31:31.332Z,2.27
2018-05-10T19:33:57.724Z,2.27
2018-05-10T19:36:24.124Z,1.97
2018-05-10T19:38:50.495Z,2.07
2018-05-10T19:41:16.890Z,2.30
2018-05-10T19:43:43.251Z,2.17
2018-05-10T19:46:09.624Z,2.33
2018-05-10T19:48:36.009Z,2.10
2018-05-10T19:51:02.337Z,1.93
2018-05-10T19:53:28.754Z,2.07
2018-05-10T19:59:40.880Z,1.90
2018-05-10T20:02:07.223Z,2.10
2018-05-10T20:04:34.328Z,2.07
2018-05-10T20:07:00.713Z,2.33
2018-05-10T20:09:27.142Z,1.90
2018-05-10T20:11:54.299Z,1.80
2018-05-10T20:14:20.678Z,2.20
2018-05-10T20:16:47.830Z,2.27
2018-05-10T20:19:14.214Z,2.07
2018-05-10T20:21:40.580Z,1.80
2018-05-10T20:24:07.038Z,1.90
2018-05-10T20:26:33.350Z,1.90
2018-05-10T20:28:59.743Z,2.30
2018-05-10T20:31:26.187Z,1.97
2018-05-10T20:33:52.546Z,2.17
2018-05-10T20:36:18.897Z,2.00
2018-05-10T20:38:45.333Z,2.00
2018-05-10T20:41:12.506Z,1.93
2018-05-10T20:43:38.878Z,1.73
2018-05-10T20:46:05.245Z,2.00
2018-05-10T20:48:31.992Z,1.90
2018-05-10T20:50:58.320Z,2.10
2018-05-10T20:53:25.444Z,2.17
2018-05-10T20:55:51.904Z,1.93
2018-05-10T20:58:18.200Z,1.60
2018-05-10T21:00:44.595Z,1.90
2018-05-10T21:03:10.939Z,1.70
2018-05-10T21:05:37.284Z,2.00
2018-05-10T21:08:03.624Z,2.07
2018-05-10T21:10:30.008Z,1.73
2018-05-10T21:12:56.348Z,1.70
2018-05-10T21:15:22.739Z,1.97
2018-05-10T21:17:51.978Z,1.93
2018-05-10T21:20:19.068Z,1.70
2018-05-10T21:22:45.412Z,1.80
2018-05-10T21:25:11.732Z,1.73
2018-05-10T21:27:38.057Z,1.90
2018-05-10T21:30:19.320Z,1.77
2018-05-10T21:32:45.709Z,1.63
2018-05-10T21:35:12.032Z,1.90
2018-05-10T21:37:38.373Z,1.63
2018-05-10T21:40:04.737Z,1.33
2018-05-10T21:42:31.809Z,2.33
2018-05-10T21:44:58.246Z,1.60
2018-05-10T21:47:24.713Z,1.40
2018-05-10T21:50:03.931Z,1.67
2018-05-10T21:52:32.663Z,2.07
2018-05-10T21:54:59.810Z,1.87
2018-05-10T21:57:26.068Z,1.47
2018-05-10T21:59:52.389Z,1.90
2018-05-10T22:02:21.570Z,1.90
2018-05-10T22:04:47.956Z,1.87
2018-05-10T22:07:14.352Z,1.63
2018-05-10T22:09:40.784Z,1.40
2018-05-10T22:12:07.391Z,1.50
2018-05-10T22:14:34.399Z,1.63
2018-05-10T22:17:00.769Z,1.60
2018-05-10T22:19:27.143Z,1.90
2018-05-10T22:21:53.547Z,1.87
2018-05-10T22:24:20.513Z,1.63
2018-05-10T22:26:46.851Z,1.67
2018-05-10T22:29:14.109Z,1.90
2018-05-10T22:31:40.462Z,1.50
2018-05-10T22:34:07.564Z,1.40
2018-05-10T22:36:34.620Z,1.77
2018-05-10T22:39:00.988Z,1.20
2018-05-10T22:41:27.378Z,1.63
2018-05-10T22:43:53.741Z,1.40
2018-05-10T22:46:20.101Z,1.70
2018-05-10T22:48:47.185Z,1.47
2018-05-10T22:51:13.568Z,1.60
2018-05-10T22:53:40.601Z,1.60
2018-05-10T22:56:06.925Z,1.70
2018-05-10T22:58:34.103Z,1.60
2018-05-10T23:01:01.224Z,1.47
2018-05-10T23:03:28.355Z,1.30
2018-05-10T23:05:54.716Z,1.40
2018-05-10T23:08:21.981Z,1.50
2018-05-10T23:10:49.071Z,1.60
2018-05-10T23:13:15.439Z,1.20
2018-05-10T23:15:43.974Z,1.50
2018-05-10T23:18:10.361Z,1.30
2018-05-10T23:20:37.257Z,1.60
2018-05-10T23:23:03.643Z,1.50
2018-05-10T23:25:30.008Z,1.20
2018-05-10T23:27:59.999Z,1.57
2018-05-10T23:30:27.136Z,1.40
2018-05-10T23:32:53.492Z,1.40
2018-05-10T23:35:20.604Z,1.30
2018-05-10T23:37:47.179Z,1.30
2018-05-10T23:40:13.524Z,1.70
2018-05-10T23:42:39.923Z,2.13
2018-05-10T23:45:06.372Z,1.50
2018-05-10T23:47:32.728Z,1.47
2018-05-10T23:49:59.097Z,1.37
2018-05-10T23:52:25.446Z,1.20
2018-05-10T23:54:51.832Z,1.53
2018-05-10T23:57:18.185Z,1.20
2018-05-10T23:59:44.533Z,1.50
